createdAt,value
2022-09-16T00:00:51.631Z,7.95
2022-09-16T00:03:19.067Z,9.45
2022-09-16T00:05:49.003Z,10.75
2022-09-16T00:08:17.204Z,11.02
2022-09-16T00:10:44.576Z,9.85
2022-09-16T00:13:13.217Z,10.63
2022-09-16T00:15:49.111Z,8.48
2022-09-16T00:18:16.017Z,9.43
2022-09-16T00:20:47.871Z,11.77
2022-09-16T00:23:15.231Z,7.57
2022-09-16T00:25:42.278Z,9.27
2022-09-16T00:28:09.216Z,7.80
2022-09-16T00:30:36.311Z,10.93
2022-09-16T00:33:03.420Z,10.55
2022-09-16T00:35:30.393Z,7.35
2022-09-16T00:37:57.329Z,8.55
2022-09-16T00:40:24.373Z,10.65
2022-09-16T00:42:51.384Z,11.10
2022-09-16T00:45:24.166Z,11.05
2022-09-16T00:47:57.942Z,8.80
2022-09-16T00:50:48.767Z,9.57
2022-09-16T00:53:27.995Z,11.38
2022-09-16T00:55:57.824Z,11.55
2022-09-16T00:58:51.479Z,9.88
2022-09-16T01:01:18.924Z,10.00
2022-09-16T01:03:51.680Z,8.32
2022-09-16T01:06:19.593Z,7.93
2022-09-16T01:08:49.367Z,10.02
2022-09-16T01:11:16.581Z,8.43
2022-09-16T01:13:45.871Z,9.07
2022-09-16T01:16:18.195Z,8.75
2022-09-16T01:19:15.954Z,6.53
2022-09-16T01:22:03.588Z,12.55
2022-09-16T01:24:51.784Z,9.07
2022-09-16T01:27:26.198Z,13.32
2022-09-16T01:30:11.076Z,10.50
2022-09-16T01:32:40.980Z,8.85
2022-09-16T01:35:26.821Z,8.73
2022-09-16T01:38:14.753Z,8.63
2022-09-16T01:41:23.805Z,16.90
2022-09-16T01:44:03.718Z,23.02
2022-09-16T01:46:57.122Z,14.15
2022-09-16T01:49:42.908Z,7.13
2022-09-16T01:52:16.040Z,12.10
2022-09-16T01:55:20.455Z,11.10
2022-09-16T01:57:59.157Z,11.27
2022-09-16T02:00:26.455Z,15.32
2022-09-16T02:03:07.645Z,12.82
2022-09-16T02:05:43.016Z,8.90
2022-09-16T02:08:17.707Z,9.27
2022-09-16T02:10:50.983Z,14.82
2022-09-16T02:13:26.519Z,10.27
2022-09-16T02:15:58.785Z,14.30
2022-09-16T02:18:30.554Z,10.40
2022-09-16T02:21:00.707Z,6.82
2022-09-16T02:23:33.310Z,11.38
2022-09-16T02:26:01.907Z,12.35
2022-09-16T02:28:36.896Z,9.02
2022-09-16T02:31:07.941Z,15.60
2022-09-16T02:33:47.536Z,10.90
2022-09-16T02:36:20.702Z,12.13
2022-09-16T02:38:53.271Z,15.52
2022-09-16T02:41:20.439Z,10.65
2022-09-16T02:43:47.362Z,11.38
2022-09-16T02:46:31.156Z,10.00
2022-09-16T02:49:21.833Z,11.43
2022-09-16T02:52:13.529Z,16.00
2022-09-16T02:55:00.715Z,12.50
2022-09-16T02:57:28.249Z,10.20
2022-09-16T02:59:55.295Z,9.52
2022-09-16T03:02:22.608Z,10.75
2022-09-16T03:04:49.627Z,8.65
2022-09-16T03:07:17.210Z,12.25
2022-09-16T03:09:46.940Z,13.52
2022-09-16T03:12:37.075Z,13.45
2022-09-16T03:15:42.420Z,16.27
2022-09-16T03:18:32.318Z,11.40
2022-09-16T03:21:17.686Z,11.50
2022-09-16T03:24:00.441Z,16.58
2022-09-16T03:26:47.608Z,10.27
2022-09-16T03:29:32.508Z,8.43
2022-09-16T03:32:17.731Z,18.15
2022-09-16T03:35:04.357Z,16.98
2022-09-16T03:37:36.980Z,8.48
2022-09-16T03:40:15.838Z,12.55
2022-09-16T03:42:44.170Z,9.63
2022-09-16T03:45:22.044Z,13.52
2022-09-16T03:47:50.944Z,14.38
2022-09-16T03:50:19.074Z,10.60
2022-09-16T03:52:46.215Z,11.52
2022-09-16T03:55:13.596Z,10.85
2022-09-16T03:57:40.541Z,12.15
2022-09-16T04:00:08.758Z,14.60
2022-09-16T04:02:38.972Z,11.27
2022-09-16T04:05:06.447Z,16.15
2022-09-16T04:07:33.720Z,15.40
2022-09-16T04:10:01.715Z,13.75
2022-09-16T04:12:29.315Z,10.95
2022-09-16T04:14:56.433Z,11.20
2022-09-16T04:17:23.759Z,14.45
2022-09-16T04:19:51.506Z,12.80
2022-09-16T04:22:18.605Z,15.13
2022-09-16T04:24:45.534Z,10.75
2022-09-16T04:27:12.437Z,13.95
2022-09-16T04:29:39.353Z,11.20
2022-09-16T04:32:06.307Z,11.48
2022-09-16T04:34:33.708Z,11.73
2022-09-16T04:37:00.659Z,10.15
2022-09-16T04:39:27.640Z,8.82
2022-09-16T04:41:54.560Z,10.52
2022-09-16T04:44:21.609Z,11.35
2022-09-16T04:46:48.580Z,14.30
2022-09-16T04:49:15.559Z,16.75
2022-09-16T04:51:42.508Z,18.48
2022-09-16T04:54:09.736Z,16.02
2022-09-16T04:56:36.681Z,20.00
2022-09-16T04:59:04.954Z,19.58
2022-09-16T05:01:34.166Z,8.45
2022-09-16T05:04:04.243Z,12.77
2022-09-16T05:06:34.214Z,13.60
2022-09-16T05:09:01.627Z,10.90
2022-09-16T05:11:31.448Z,13.48
2022-09-16T05:14:03.193Z,19.58
2022-09-16T05:16:30.788Z,10.80
2022-09-16T05:18:59.931Z,16.42
2022-09-16T05:21:28.685Z,14.82
2022-09-16T05:23:59.680Z,11.18
2022-09-16T05:26:29.507Z,19.27
2022-09-16T05:28:56.418Z,16.25
2022-09-16T05:31:27.250Z,19.33
2022-09-16T05:34:23.126Z,12.18
2022-09-16T05:36:53.966Z,17.65
2022-09-16T05:39:23.725Z,12.93
2022-09-16T05:41:56.251Z,15.00
2022-09-16T05:44:23.948Z,16.35
2022-09-16T05:46:50.911Z,18.75
2022-09-16T05:49:21.252Z,17.75
2022-09-16T05:51:49.207Z,13.07
2022-09-16T05:54:18.619Z,10.43
2022-09-16T05:56:46.587Z,17.70
2022-09-16T05:59:14.458Z,17.08
2022-09-16T06:01:41.794Z,18.75
2022-09-16T06:04:12.004Z,15.60
2022-09-16T06:06:41.503Z,22.38
2022-09-16T06:09:14.972Z,11.30
2022-09-16T06:11:44.469Z,18.70
2022-09-16T06:14:13.175Z,15.10
2022-09-16T06:16:40.847Z,16.48
2022-09-16T06:19:11.055Z,14.52
2022-09-16T06:21:38.992Z,19.65
2022-09-16T06:24:10.047Z,21.15
2022-09-16T06:26:41.656Z,13.38
2022-09-16T06:29:09.573Z,14.60
2022-09-16T06:31:37.930Z,14.70
2022-09-16T06:34:06.004Z,13.38
2022-09-16T06:36:42.731Z,27.63
2022-09-16T06:39:13.816Z,28.88
2022-09-16T06:41:41.695Z,30.35
2022-09-16T06:44:08.947Z,15.95
2022-09-16T06:46:36.523Z,15.10
2022-09-16T06:49:06.221Z,17.15
2022-09-16T06:51:34.736Z,16.35
2022-09-16T06:54:07.128Z,13.32
2022-09-16T06:56:36.124Z,16.13
2022-09-16T06:59:03.719Z,10.55
2022-09-16T07:01:31.755Z,16.15
2022-09-16T07:04:01.775Z,16.92
2022-09-16T07:09:17.167Z,20.17
2022-09-16T07:11:44.114Z,17.27
2022-09-16T07:14:11.087Z,31.35
2022-09-16T07:16:38.080Z,20.35
2022-09-16T07:19:05.384Z,18.00
2022-09-16T07:21:32.581Z,21.73
2022-09-16T07:24:01.652Z,19.83
2022-09-16T07:26:34.227Z,19.95
2022-09-16T07:29:03.724Z,16.05
2022-09-16T07:32:04.872Z,17.92
2022-09-16T07:34:59.291Z,22.63
2022-09-16T08:40:27.323Z,13.85
2022-09-16T08:43:00.411Z,16.17
2022-09-16T08:45:35.741Z,16.25
2022-09-16T08:48:43.071Z,14.73
2022-09-16T08:51:15.959Z,14.25
2022-09-16T08:53:49.872Z,15.25
2022-09-16T08:56:21.888Z,15.32
2022-09-16T08:58:54.044Z,16.92
2022-09-16T09:01:20.962Z,19.95
2022-09-16T09:03:49.021Z,14.43
2022-09-16T09:06:27.834Z,17.98
2022-09-16T09:08:57.760Z,14.32
2022-09-16T09:11:35.483Z,22.30
2022-09-16T09:14:09.612Z,22.02
2022-09-16T09:16:51.693Z,18.10
2022-09-16T09:19:50.073Z,11.32
2022-09-16T09:22:38.924Z,17.77
2022-09-16T09:25:22.763Z,20.48
2022-09-16T09:28:11.304Z,14.13
2022-09-16T09:30:44.532Z,23.50
2022-09-16T09:33:57.944Z,14.10
2022-09-16T09:37:03.440Z,16.58
2022-09-16T09:39:53.129Z,18.55
2022-09-16T09:42:26.001Z,15.77
2022-09-16T09:45:13.744Z,13.50
2022-09-16T09:47:47.439Z,12.18
2022-09-16T09:50:24.363Z,15.45
2022-09-16T09:53:11.519Z,14.23
2022-09-16T09:55:41.334Z,15.65
2022-09-16T09:58:32.594Z,19.55
2022-09-16T10:00:59.654Z,19.10
2022-09-16T10:03:28.526Z,16.77
2022-09-16T10:05:56.044Z,15.57
2022-09-16T10:08:44.718Z,20.95
2022-09-16T10:11:24.483Z,17.52
2022-09-16T10:13:58.011Z,13.85
2022-09-16T10:16:38.265Z,18.35
2022-09-16T10:19:06.932Z,13.68
2022-09-16T10:21:49.740Z,16.15
2022-09-16T10:24:36.096Z,16.23
2022-09-16T10:27:23.281Z,18.63
2022-09-16T10:30:15.307Z,29.75
2022-09-16T10:32:48.198Z,16.23
2022-09-16T10:35:23.270Z,15.57
2022-09-16T10:37:53.669Z,10.98
2022-09-16T10:40:23.391Z,18.85
2022-09-16T10:42:57.095Z,24.58
2022-09-16T10:45:52.088Z,18.55
2022-09-16T10:48:50.284Z,13.52
2022-09-16T10:51:44.586Z,14.73
2022-09-16T10:54:40.814Z,21.80
2022-09-16T10:57:50.471Z,18.17
2022-09-16T11:00:58.828Z,13.98
2022-09-16T11:04:33.386Z,13.60
2022-09-16T11:07:43.150Z,19.05
2022-09-16T11:10:52.764Z,15.60
2022-09-16T11:13:52.658Z,18.88
2022-09-16T11:17:30.061Z,10.10
2022-09-16T11:20:41.701Z,12.52
2022-09-16T11:24:06.406Z,12.60
2022-09-16T11:26:38.193Z,18.13
2022-09-16T11:29:27.230Z,22.27
2022-09-16T11:32:35.361Z,9.93
2022-09-16T11:35:23.227Z,14.27
2022-09-16T11:37:57.484Z,15.68
2022-09-16T11:40:33.268Z,21.27
2022-09-16T11:43:21.309Z,16.70
2022-09-16T11:45:56.496Z,20.08
2022-09-16T11:48:40.656Z,15.73
2022-09-16T11:51:24.323Z,13.23
2022-09-16T11:54:06.045Z,12.48
2022-09-16T11:56:43.377Z,19.23
2022-09-16T11:59:26.140Z,14.73
2022-09-16T12:02:18.075Z,14.87
2022-09-16T12:04:57.848Z,14.02
2022-09-16T12:07:39.710Z,14.75
2022-09-16T12:10:27.809Z,14.57
2022-09-16T12:13:05.059Z,15.73
2022-09-16T12:15:48.528Z,17.33
2022-09-16T12:18:35.008Z,15.48
2022-09-16T12:21:21.192Z,12.02
2022-09-16T12:24:32.068Z,17.88
2022-09-16T12:27:36.615Z,19.27
2022-09-16T12:30:13.177Z,15.68
2022-09-16T12:32:49.395Z,15.45
2022-09-16T12:35:22.990Z,10.77
2022-09-16T12:37:51.848Z,15.73
2022-09-16T12:40:29.080Z,14.52
2022-09-16T12:43:17.131Z,20.42
2022-09-16T12:46:17.438Z,15.48
2022-09-16T12:49:02.778Z,13.23
2022-09-16T12:51:55.329Z,14.80
2022-09-16T12:54:22.221Z,14.80
2022-09-16T12:56:56.100Z,14.43
2022-09-16T12:59:49.980Z,14.15
2022-09-16T13:02:29.720Z,10.88
2022-09-16T13:05:01.971Z,12.60
2022-09-16T13:07:34.223Z,10.43
2022-09-16T13:10:08.844Z,16.00
2022-09-16T13:12:43.103Z,12.60
2022-09-16T13:15:34.037Z,15.30
2022-09-16T13:18:23.750Z,17.67
2022-09-16T13:21:00.110Z,14.85
2022-09-16T13:23:34.531Z,22.08
2022-09-16T13:26:03.168Z,16.20
2022-09-16T13:28:32.875Z,16.15
2022-09-16T13:31:33.967Z,21.05
2022-09-16T13:34:01.270Z,18.17
2022-09-16T13:36:29.734Z,16.40
2022-09-16T13:38:59.548Z,16.17
2022-09-16T13:41:43.693Z,17.35
2022-09-16T13:44:41.610Z,17.08
2022-09-16T13:47:11.770Z,19.52
2022-09-16T13:49:50.419Z,13.00
2022-09-16T13:52:31.199Z,19.50
2022-09-16T13:55:12.343Z,22.73
2022-09-16T13:57:53.148Z,30.15
2022-09-16T14:00:36.077Z,16.33
2022-09-16T14:03:56.781Z,14.50
2022-09-16T14:06:51.534Z,14.30
2022-09-16T14:10:03.453Z,19.77
2022-09-16T14:12:42.045Z,11.98
2022-09-16T14:15:09.865Z,15.50
2022-09-16T14:17:51.181Z,18.63
2022-09-16T14:20:22.381Z,20.27
2022-09-16T14:22:59.911Z,18.00
2022-09-16T14:25:29.608Z,13.07
2022-09-16T14:28:20.789Z,20.88
2022-09-16T14:30:59.261Z,20.58
2022-09-16T14:33:29.456Z,16.40
2022-09-16T14:35:57.703Z,16.83
2022-09-16T14:39:07.093Z,20.00
2022-09-16T14:41:36.320Z,14.43
2022-09-16T14:44:20.776Z,17.73
2022-09-16T14:46:56.785Z,13.32
2022-09-16T14:49:32.207Z,20.88
2022-09-16T14:52:04.340Z,16.17
2022-09-16T14:54:31.749Z,12.02
2022-09-16T14:57:00.042Z,12.15
2022-09-16T14:59:38.521Z,21.75
2022-09-16T15:02:23.589Z,13.27
2022-09-16T15:05:38.661Z,12.57
2022-09-16T15:08:23.983Z,20.85
2022-09-16T15:10:56.921Z,13.63
2022-09-16T15:13:30.480Z,25.20
2022-09-16T15:16:08.507Z,14.90
2022-09-16T15:18:54.705Z,13.93
2022-09-16T15:21:23.709Z,18.98
2022-09-16T15:23:52.993Z,14.20
2022-09-16T15:26:23.265Z,15.93
2022-09-16T15:28:52.532Z,14.75
2022-09-16T15:31:32.319Z,21.13
2022-09-16T15:34:01.323Z,16.13
2022-09-16T15:36:42.616Z,17.33
2022-09-16T15:39:28.397Z,15.60
2022-09-16T15:42:16.743Z,17.55
2022-09-16T15:45:12.385Z,16.75
2022-09-16T15:47:56.180Z,14.40
2022-09-16T15:50:24.698Z,15.30
2022-09-16T15:53:06.745Z,17.48
2022-09-16T15:55:49.086Z,19.25
2022-09-16T15:58:20.452Z,12.52
2022-09-16T16:01:11.788Z,14.88
2022-09-16T16:03:44.708Z,17.08
2022-09-16T16:06:12.259Z,10.18
2022-09-16T16:08:40.283Z,10.85
2022-09-16T16:11:18.866Z,12.13
2022-09-16T16:13:47.123Z,17.92
2022-09-16T16:16:15.823Z,11.77
2022-09-16T16:18:44.779Z,16.05
2022-09-16T16:21:15.656Z,10.68
2022-09-16T16:23:43.220Z,14.55
2022-09-16T16:26:11.900Z,15.55
2022-09-16T16:28:39.167Z,15.43
2022-09-16T16:31:17.826Z,26.13
2022-09-16T16:33:47.512Z,11.95
2022-09-16T16:36:16.909Z,23.30
2022-09-16T16:38:45.623Z,31.73
2022-09-16T16:41:13.630Z,24.83
2022-09-16T16:43:40.999Z,19.58
2022-09-16T16:46:08.925Z,16.30
2022-09-16T16:48:35.959Z,22.45
2022-09-16T16:51:06.661Z,17.95
2022-09-16T16:53:34.156Z,19.15
2022-09-16T16:56:15.072Z,18.55
2022-09-16T16:58:45.572Z,22.88
2022-09-16T17:01:18.682Z,22.10
2022-09-16T17:03:49.843Z,22.08
2022-09-16T17:06:18.125Z,25.23
2022-09-16T17:08:45.147Z,22.80
2022-09-16T17:11:14.879Z,25.13
2022-09-16T17:13:46.833Z,23.63
2022-09-16T17:16:18.038Z,21.75
2022-09-16T17:18:45.376Z,22.40
2022-09-16T17:21:16.691Z,17.95
2022-09-16T17:23:44.265Z,21.67
2022-09-16T17:26:12.465Z,24.13
2022-09-16T17:28:41.185Z,22.38
2022-09-16T17:31:10.341Z,16.55
2022-09-16T17:33:37.606Z,16.58
2022-09-16T17:36:06.668Z,13.95
2022-09-16T17:38:34.060Z,19.55
2022-09-16T17:41:12.416Z,21.55
2022-09-16T17:43:40.326Z,18.58
2022-09-16T17:46:14.012Z,17.77
2022-09-16T17:48:41.911Z,17.75
2022-09-16T17:51:09.678Z,16.38
2022-09-16T17:53:37.810Z,21.02
2022-09-16T17:56:12.408Z,24.92
2022-09-16T17:58:41.600Z,28.55
2022-09-16T18:01:12.560Z,21.05
2022-09-16T18:03:41.321Z,26.83
2022-09-16T18:06:10.476Z,28.70
2022-09-16T18:08:38.624Z,20.52
2022-09-16T18:11:06.712Z,27.83
2022-09-16T18:13:33.703Z,18.15
2022-09-16T18:16:07.272Z,19.25
2022-09-16T18:21:06.153Z,16.67
2022-09-16T18:23:33.714Z,12.73
2022-09-16T18:26:05.975Z,15.55
2022-09-16T18:28:58.287Z,20.73
2022-09-16T18:31:24.750Z,23.25
2022-09-16T18:33:55.925Z,15.40
2022-09-16T18:36:25.545Z,19.52
2022-09-16T18:38:54.671Z,15.07
2022-09-16T18:41:24.457Z,12.35
2022-09-16T18:44:00.014Z,19.65
2022-09-16T18:46:32.278Z,16.52
2022-09-16T18:49:00.133Z,18.00
2022-09-16T18:51:30.059Z,37.38
2022-09-16T18:54:02.236Z,26.77
2022-09-16T18:56:32.157Z,23.73
2022-09-16T18:59:21.036Z,20.02
2022-09-16T19:01:49.923Z,20.83
2022-09-16T19:04:20.010Z,18.10
2022-09-16T19:06:49.696Z,22.58
2022-09-16T19:09:20.248Z,17.45
2022-09-16T19:11:47.858Z,24.42
2022-09-16T19:14:15.566Z,22.45
2022-09-16T19:16:44.891Z,28.23
2022-09-16T19:19:14.488Z,16.45
2022-09-16T19:21:43.008Z,18.33
2022-09-16T19:24:19.006Z,18.65
2022-09-16T19:26:47.220Z,20.80
2022-09-16T19:29:15.639Z,25.75
2022-09-16T19:31:45.940Z,20.42
2022-09-16T19:34:14.808Z,21.65
2022-09-16T19:36:42.737Z,22.80
2022-09-16T19:39:12.156Z,31.33
2022-09-16T19:41:41.044Z,19.80
2022-09-16T19:44:12.178Z,20.63
2022-09-16T19:46:40.483Z,24.02
2022-09-16T19:49:08.419Z,20.55
2022-09-16T19:51:36.092Z,24.63
2022-09-16T19:54:03.633Z,25.42
2022-09-16T19:56:33.358Z,30.05
2022-09-16T19:59:01.765Z,26.13
2022-09-16T20:01:31.886Z,21.45
2022-09-16T20:03:59.746Z,20.75
2022-09-16T20:06:30.825Z,23.48
2022-09-16T20:09:00.087Z,26.70
2022-09-16T20:11:30.157Z,33.22
2022-09-16T20:14:00.390Z,19.15
2022-09-16T20:16:37.735Z,26.05
2022-09-16T20:19:07.982Z,19.05
2022-09-16T20:21:36.047Z,25.13
2022-09-16T20:24:05.953Z,16.58
2022-09-16T20:26:34.174Z,16.73
2022-09-16T20:29:01.830Z,18.50
2022-09-16T20:31:32.561Z,16.88
2022-09-16T20:34:00.344Z,16.13
2022-09-16T20:36:32.040Z,16.10
2022-09-16T20:39:00.250Z,13.50
2022-09-16T20:41:29.828Z,15.93
2022-09-16T20:43:57.574Z,13.73
2022-09-16T20:46:31.080Z,8.73
2022-09-16T20:51:29.458Z,9.65
2022-09-16T20:53:58.826Z,12.25
2022-09-16T20:56:30.412Z,13.45
2022-09-16T20:59:02.425Z,7.30
2022-09-16T21:01:34.537Z,8.63
2022-09-16T21:04:05.301Z,5.03
2022-09-16T21:06:34.718Z,9.95
2022-09-16T21:09:05.498Z,6.72
2022-09-16T21:11:33.285Z,12.25
2022-09-16T21:14:02.328Z,7.05
2022-09-16T21:16:31.918Z,6.20
2022-09-16T21:19:00.855Z,7.03
2022-09-16T21:21:28.837Z,5.43
2022-09-16T21:23:57.875Z,8.00
2022-09-16T21:26:31.151Z,6.60
2022-09-16T21:29:04.015Z,7.03
2022-09-16T21:31:34.534Z,7.68
2022-09-16T21:34:03.154Z,7.05
2022-09-16T21:36:30.676Z,8.25
2022-09-16T21:38:58.463Z,5.88
2022-09-16T21:41:26.591Z,7.07
2022-09-16T21:43:55.837Z,4.57
2022-09-16T21:46:25.868Z,3.33
2022-09-16T21:48:58.392Z,7.70
2022-09-16T21:51:25.609Z,2.05
2022-09-16T21:53:52.852Z,4.85
2022-09-16T21:56:21.676Z,8.07
2022-09-16T21:58:50.230Z,6.40
2022-09-16T22:01:21.229Z,6.43
2022-09-16T22:04:03.301Z,4.00
2022-09-16T22:06:30.803Z,4.80
2022-09-16T22:09:00.986Z,3.53
2022-09-16T22:11:30.732Z,2.88
2022-09-16T22:14:00.746Z,5.13
2022-09-16T22:16:30.776Z,9.68
2022-09-16T22:19:02.999Z,8.05
2022-09-16T22:21:32.463Z,3.22
2022-09-16T22:24:00.769Z,3.97
2022-09-16T22:26:29.108Z,2.40
2022-09-16T22:28:56.576Z,2.58
2022-09-16T22:31:25.022Z,8.98
2022-09-16T22:33:53.871Z,7.90
2022-09-16T22:36:26.663Z,1.15
2022-09-16T22:39:00.913Z,1.30
2022-09-16T22:41:28.832Z,2.05
2022-09-16T22:43:56.035Z,3.42
2022-09-16T22:46:26.309Z,2.88
2022-09-16T22:48:55.321Z,5.05
2022-09-16T22:51:22.608Z,1.65
2022-09-16T22:53:50.181Z,3.22
2022-09-16T22:56:20.200Z,0.75
2022-09-16T22:58:51.415Z,4.00
2022-09-16T23:01:20.253Z,1.92
2022-09-16T23:03:51.693Z,0.95
2022-09-16T23:06:18.697Z,1.70
2022-09-16T23:08:46.438Z,4.13
2022-09-16T23:11:22.092Z,2.33
2022-09-16T23:13:50.394Z,3.15
2022-09-16T23:16:20.988Z,2.58
2022-09-16T23:18:49.128Z,1.80
2022-09-16T23:21:19.198Z,3.80
2022-09-16T23:23:49.746Z,2.55
2022-09-16T23:26:22.282Z,0.52
2022-09-16T23:28:54.487Z,1.60
2022-09-16T23:31:25.303Z,0.40
2022-09-16T23:33:53.196Z,0.70
2022-09-16T23:36:20.908Z,0.57
2022-09-16T23:38:48.516Z,0.50
2022-09-16T23:41:19.927Z,0.68
2022-09-16T23:43:48.562Z,0.43
2022-09-16T23:46:17.603Z,1.13
2022-09-16T23:48:45.241Z,1.98
2022-09-16T23:51:14.124Z,1.83
2022-09-16T23:53:45.127Z,0.43
2022-09-16T23:56:14.062Z,2.15
2022-09-16T23:58:45.605Z,0.65
